createdAt,value
2019-02-06T00:00:26.994Z,9.9
2019-02-06T00:02:18.671Z,11.2
2019-02-06T00:04:19.352Z,17.1
2019-02-06T00:06:19.237Z,9.7
2019-02-06T00:08:18.929Z,19.6
2019-02-06T00:10:19.184Z,11.7
2019-02-06T00:12:18.880Z,11.5
2019-02-06T00:14:19.719Z,15.2
2019-02-06T00:16:19.238Z,12.4
2019-02-06T00:18:19.019Z,15.3
2019-02-06T00:20:19.085Z,16.2
2019-02-06T00:22:19.031Z,12.5
2019-02-06T00:24:18.702Z,18.7
2019-02-06T00:26:19.555Z,9.5
2019-02-06T00:28:19.647Z,13
2019-02-06T00:30:18.643Z,10.1
2019-02-06T00:32:19.309Z,12.8
2019-02-06T00:34:18.988Z,11.2
2019-02-06T00:36:19.244Z,16.7
2019-02-06T00:38:18.931Z,11.2
2019-02-06T00:40:19.143Z,13.6
2019-02-06T00:42:18.830Z,9.3
2019-02-06T00:44:19.512Z,10.8
2019-02-06T00:46:18.619Z,13.3
2019-02-06T00:48:19.275Z,11.8
2019-02-06T00:50:18.917Z,6.4
2019-02-06T00:52:19.577Z,10.5
2019-02-06T00:54:19.219Z,11.1
2019-02-06T00:56:19.119Z,10.8
2019-02-06T00:58:18.787Z,9.6
2019-02-06T01:00:19.479Z,10.2
2019-02-06T01:02:19.208Z,9.8
2019-02-06T01:04:18.881Z,13.1
2019-02-06T01:06:19.291Z,9.5
2019-02-06T01:08:18.970Z,8.6
2019-02-06T01:10:19.103Z,13
2019-02-06T01:12:18.768Z,9.5
2019-02-06T01:14:19.730Z,11.5
2019-02-06T01:16:19.254Z,10.8
2019-02-06T01:18:18.991Z,11.6
2019-02-06T01:20:18.670Z,11.5
2019-02-06T01:22:19.336Z,10.7
2019-02-06T01:24:19.111Z,10.6
2019-02-06T01:26:19.040Z,11
2019-02-06T01:28:18.714Z,9.5
2019-02-06T01:30:19.417Z,13.5
2019-02-06T01:32:19.107Z,12.3
2019-02-06T01:34:18.759Z,11.2
2019-02-06T01:36:19.200Z,7.2
2019-02-06T01:38:18.897Z,10.6
2019-02-06T01:40:19.037Z,13.9
2019-02-06T01:42:19.014Z,17.6
2019-02-06T01:44:19.050Z,12.1
2019-02-06T01:46:18.726Z,10.3
2019-02-06T01:48:19.382Z,10.8
2019-02-06T01:50:19.102Z,14.1
2019-02-06T01:52:18.741Z,11.1
2019-02-06T01:54:19.397Z,9.9
2019-02-06T01:56:18.715Z,12.4
2019-02-06T01:58:19.358Z,10.8
2019-02-06T02:00:19.110Z,11.2
2019-02-06T02:02:18.791Z,16.2
2019-02-06T02:04:19.536Z,11.4
2019-02-06T02:06:18.596Z,14.1
2019-02-06T02:08:19.241Z,14.1
2019-02-06T02:10:19.455Z,19.7
2019-02-06T02:12:18.903Z,13.3
2019-02-06T02:14:19.744Z,13.8
2019-02-06T02:16:18.710Z,13
2019-02-06T02:18:19.470Z,17.8
2019-02-06T02:20:19.144Z,15.1
2019-02-06T02:22:19.220Z,13.7
2019-02-06T02:24:19.162Z,18.7
2019-02-06T02:26:19.045Z,17.1
2019-02-06T02:28:18.751Z,13.5
2019-02-06T02:30:19.795Z,19.5
2019-02-06T02:32:18.950Z,12.5
2019-02-06T02:34:18.654Z,16.3
2019-02-06T02:36:18.647Z,15
2019-02-06T02:38:19.292Z,15.8
2019-02-06T02:40:19.501Z,14.5
2019-02-06T02:42:19.142Z,13.5
2019-02-06T02:44:18.829Z,14.8
2019-02-06T02:46:19.175Z,16.9
2019-02-06T02:48:18.878Z,14.2
2019-02-06T02:50:19.569Z,18.8
2019-02-06T02:52:19.237Z,14.1
2019-02-06T02:54:18.902Z,18.9
2019-02-06T02:56:18.869Z,15.9
2019-02-06T02:58:19.568Z,15.3
2019-02-06T03:00:19.248Z,20.6
2019-02-06T03:02:18.928Z,16.7
2019-02-06T03:04:18.620Z,21
2019-02-06T03:06:28.763Z,22.1
2019-02-06T03:08:19.718Z,18.7
2019-02-06T03:10:19.108Z,16.9
2019-02-06T03:12:18.771Z,20
2019-02-06T03:14:19.427Z,15.8
2019-02-06T03:16:19.849Z,17.1
2019-02-06T03:18:18.947Z,19.1
2019-02-06T03:20:18.644Z,17.2
2019-02-06T03:22:19.312Z,19
2019-02-06T03:24:18.988Z,16.8
2019-02-06T03:26:18.846Z,17.1
2019-02-06T03:28:19.499Z,22.6
2019-02-06T03:30:19.600Z,17.4
2019-02-06T03:32:19.509Z,17.2
2019-02-06T03:34:19.290Z,24.3
2019-02-06T03:36:19.238Z,21
2019-02-06T03:38:18.935Z,24.3
2019-02-06T03:40:19.065Z,16.4
2019-02-06T03:42:18.721Z,21.9
2019-02-06T03:44:19.410Z,21.2
2019-02-06T03:46:19.684Z,22.8
2019-02-06T03:48:19.532Z,19.7
2019-02-06T03:50:19.230Z,19.2
2019-02-06T03:52:18.879Z,20.6
2019-02-06T03:54:19.850Z,26.6
2019-02-06T03:56:19.474Z,22.4
2019-02-06T03:58:19.088Z,27
2019-02-06T04:00:18.765Z,20.6
2019-02-06T04:02:19.414Z,24
2019-02-06T04:04:19.069Z,24.4
2019-02-06T04:06:19.446Z,18.8
2019-02-06T04:08:19.132Z,26.6
2019-02-06T04:10:19.351Z,23.6
2019-02-06T04:12:19.030Z,23.8
2019-02-06T04:14:18.703Z,22.1
2019-02-06T04:16:19.017Z,21.2
2019-02-06T04:18:18.761Z,27.6
2019-02-06T04:20:19.453Z,30.3
2019-02-06T04:22:19.123Z,20.9
2019-02-06T04:24:18.765Z,22.9
2019-02-06T04:26:18.704Z,22.9
2019-02-06T04:28:19.365Z,25.3
2019-02-06T04:30:19.126Z,23.6
2019-02-06T04:32:19.151Z,22.8
2019-02-06T04:34:19.094Z,23.1
2019-02-06T04:36:19.410Z,21.8
2019-02-06T04:38:19.080Z,27.6
2019-02-06T04:40:19.566Z,24
2019-02-06T04:42:18.641Z,20.7
2019-02-06T04:44:19.298Z,30
2019-02-06T04:46:18.753Z,30.6
2019-02-06T04:48:19.415Z,24.2
2019-02-06T04:50:19.113Z,27.8
2019-02-06T04:52:18.747Z,27.1
2019-02-06T04:54:19.481Z,23.8
2019-02-06T04:56:19.400Z,24.7
2019-02-06T04:58:19.063Z,27.1
2019-02-06T05:00:18.718Z,30.2
2019-02-06T05:02:19.416Z,28.8
2019-02-06T05:04:19.145Z,20.6
2019-02-06T05:06:19.481Z,27
2019-02-06T05:08:19.137Z,31
2019-02-06T05:10:19.578Z,28
2019-02-06T05:12:19.493Z,32.5
2019-02-06T05:14:19.154Z,31.5
2019-02-06T05:16:18.980Z,25.6
2019-02-06T05:18:18.705Z,22.8
2019-02-06T05:20:19.576Z,30.2
2019-02-06T05:22:19.221Z,22.8
2019-02-06T05:24:18.886Z,31.9
2019-02-06T05:26:19.289Z,33.2
2019-02-06T05:28:19.059Z,34.4
2019-02-06T05:30:18.740Z,31.3
2019-02-06T05:32:18.754Z,23.7
2019-02-06T05:34:19.375Z,33.7
2019-02-06T05:36:19.306Z,26.7
2019-02-06T05:38:18.977Z,26
2019-02-06T05:40:19.406Z,27.1
2019-02-06T05:42:19.221Z,26
2019-02-06T05:44:18.864Z,25.8
2019-02-06T05:46:19.272Z,25.5
2019-02-06T05:48:19.289Z,25.9
2019-02-06T05:50:19.246Z,25.2
2019-02-06T05:52:18.914Z,29.9
2019-02-06T05:54:19.727Z,30.8
2019-02-06T05:56:18.641Z,34.3
2019-02-06T05:58:19.307Z,32.4
2019-02-06T06:00:18.987Z,31.3
2019-02-06T06:02:18.761Z,26.8
2019-02-06T06:04:19.417Z,26.6
2019-02-06T06:06:19.459Z,28.6
2019-02-06T06:08:19.111Z,27.1
2019-02-06T06:10:19.578Z,26.6
2019-02-06T06:12:19.644Z,26.6
2019-02-06T06:14:19.441Z,30.4
2019-02-06T06:16:18.840Z,27.7
2019-02-06T06:18:22.430Z,38.3
2019-02-06T06:20:19.391Z,28.6
2019-02-06T06:22:19.057Z,26.5
2019-02-06T06:24:18.736Z,29.1
2019-02-06T06:26:18.911Z,31.8
2019-02-06T06:28:19.573Z,28.4
2019-02-06T06:30:19.207Z,42.8
2019-02-06T06:32:18.881Z,26.1
2019-02-06T06:34:19.524Z,28.4
2019-02-06T06:36:18.894Z,27.1
2019-02-06T06:38:19.536Z,26.1
2019-02-06T06:40:18.993Z,33.6
2019-02-06T06:42:24.473Z,26.5
2019-02-06T06:44:19.160Z,26.4
2019-02-06T06:46:18.732Z,32.2
2019-02-06T06:48:19.668Z,28.9
2019-02-06T06:50:18.701Z,30.3
2019-02-06T06:52:19.377Z,36.2
2019-02-06T06:54:19.033Z,32.2
2019-02-06T06:56:18.970Z,25
2019-02-06T06:58:18.632Z,26.6
2019-02-06T07:00:19.369Z,25.7
2019-02-06T07:02:19.127Z,30.9
2019-02-06T07:04:18.802Z,38
2019-02-06T07:06:19.202Z,28.1
2019-02-06T07:08:18.855Z,26.1
2019-02-06T07:10:18.968Z,26
2019-02-06T07:12:18.612Z,28.8
2019-02-06T07:14:19.259Z,22.3
2019-02-06T07:16:18.646Z,29.7
2019-02-06T07:18:19.356Z,28.3
2019-02-06T07:20:19.021Z,36.4
2019-02-06T07:22:18.660Z,28.4
2019-02-06T07:24:19.294Z,31.7
2019-02-06T07:26:18.808Z,30.6
2019-02-06T07:28:18.695Z,27
2019-02-06T07:30:19.379Z,24.3
2019-02-06T07:32:18.814Z,34.7
2019-02-06T07:34:19.681Z,29.8
2019-02-06T07:36:18.839Z,31.7
2019-02-06T07:38:24.718Z,28.8
2019-02-06T07:40:18.902Z,26
2019-02-06T07:42:19.529Z,29
2019-02-06T07:44:19.199Z,25.3
2019-02-06T07:46:19.491Z,34.5
2019-02-06T07:48:19.228Z,25.5
2019-02-06T07:50:19.000Z,31.6
2019-02-06T07:52:18.670Z,25.8
2019-02-06T07:54:19.330Z,31.4
2019-02-06T07:56:18.595Z,28.7
2019-02-06T07:58:19.227Z,27.6
2019-02-06T08:00:18.920Z,34
2019-02-06T08:02:18.630Z,23.2
2019-02-06T08:04:19.667Z,26.4
2019-02-06T08:06:19.279Z,30.6
2019-02-06T08:08:18.936Z,25.3
2019-02-06T08:10:19.141Z,27.8
2019-02-06T08:12:19.099Z,32.7
2019-02-06T08:14:19.134Z,25.3
2019-02-06T08:16:19.493Z,30.9
2019-02-06T08:18:19.231Z,30.2
2019-02-06T08:20:18.856Z,28.2
2019-02-06T08:22:19.488Z,32.8
2019-02-06T08:24:19.163Z,29.2
2019-02-06T08:26:19.527Z,32.2
2019-02-06T08:28:19.194Z,31.3
2019-02-06T08:30:18.854Z,35.9
2019-02-06T08:32:19.314Z,28.3
2019-02-06T08:34:19.007Z,26.1
2019-02-06T08:36:19.163Z,27.9
2019-02-06T08:38:18.801Z,29.7
2019-02-06T08:40:18.927Z,27.2
2019-02-06T08:42:19.555Z,29.3
2019-02-06T08:44:19.196Z,25.4
2019-02-06T08:46:19.535Z,33.9
2019-02-06T08:48:19.194Z,30.6
2019-02-06T08:50:19.249Z,25.7
2019-02-06T08:52:19.248Z,27.7
2019-02-06T08:54:20.614Z,33.3
2019-02-06T08:56:19.523Z,32.6
2019-02-06T08:58:19.197Z,27.9
2019-02-06T09:00:19.007Z,28.9
2019-02-06T09:02:18.651Z,28.1
2019-02-06T09:04:19.291Z,26.7
2019-02-06T09:06:18.720Z,23.6
2019-02-06T09:08:19.376Z,26.9
2019-02-06T09:10:19.517Z,33.1
2019-02-06T09:12:19.168Z,34.2
2019-02-06T09:14:18.821Z,24.4
2019-02-06T09:16:18.700Z,27.1
2019-02-06T09:18:19.473Z,26
2019-02-06T09:20:19.173Z,23.3
2019-02-06T09:22:18.818Z,30.4
2019-02-06T09:24:19.464Z,22.6
2019-02-06T09:26:19.327Z,30.4
2019-02-06T09:28:19.189Z,22.6
2019-02-06T09:30:19.341Z,24.2
2019-02-06T09:32:18.992Z,22.7
2019-02-06T09:34:18.643Z,26.7
2019-02-06T09:36:19.072Z,24.4
2019-02-06T09:38:18.753Z,27.4
2019-02-06T09:40:18.865Z,20
2019-02-06T09:42:19.545Z,25.1
2019-02-06T09:44:19.200Z,27.6
2019-02-06T09:46:19.112Z,31.2
2019-02-06T09:48:18.787Z,23.7
2019-02-06T09:50:19.430Z,21.3
2019-02-06T09:52:19.127Z,19
2019-02-06T09:54:18.813Z,21.2
2019-02-06T09:56:19.572Z,16.3
2019-02-06T09:58:19.452Z,21.4
2019-02-06T10:00:19.321Z,20.1
2019-02-06T10:02:18.993Z,18
2019-02-06T10:04:18.761Z,16.3
2019-02-06T10:06:19.081Z,23.2
2019-02-06T10:08:19.172Z,19.9
2019-02-06T10:10:19.306Z,20.3
2019-02-06T10:12:18.961Z,25.2
2019-02-06T10:14:18.655Z,18.7
2019-02-06T10:16:20.497Z,20.4
2019-02-06T10:18:19.215Z,23.7
2019-02-06T10:20:18.900Z,25.7
2019-02-06T10:22:19.577Z,19.3
2019-02-06T10:24:19.342Z,24.5
2019-02-06T10:26:19.226Z,17.1
2019-02-06T10:28:18.899Z,20.8
2019-02-06T10:30:19.603Z,22.3
2019-02-06T10:32:19.243Z,18.2
2019-02-06T10:34:18.891Z,17.3
2019-02-06T10:36:19.187Z,21.1
2019-02-06T10:38:18.860Z,18.6
2019-02-06T10:40:19.133Z,29.1
2019-02-06T10:42:18.802Z,18.5
2019-02-06T10:44:19.661Z,14.1
2019-02-06T10:46:18.718Z,15.8
2019-02-06T10:48:19.369Z,17.7
2019-02-06T10:50:19.035Z,18.9
2019-02-06T10:52:18.859Z,16.7
2019-02-06T10:54:18.707Z,16.1
2019-02-06T10:56:19.039Z,15.1
2019-02-06T10:58:18.742Z,17.7
2019-02-06T11:00:19.444Z,13.6
2019-02-06T11:02:19.131Z,15.6
2019-02-06T11:04:18.783Z,13.5
2019-02-06T11:06:18.969Z,16.1
2019-02-06T11:08:18.660Z,16.1
2019-02-06T11:10:18.810Z,14
2019-02-06T11:12:19.512Z,13.4
2019-02-06T11:14:19.186Z,16.5
2019-02-06T11:16:19.064Z,13.9
2019-02-06T11:18:18.799Z,11.7
2019-02-06T11:20:19.480Z,11.7
2019-02-06T11:22:19.519Z,9.6
2019-02-06T11:24:19.532Z,16.1
2019-02-06T11:26:18.949Z,14.9
2019-02-06T11:28:18.634Z,14.1
2019-02-06T11:30:19.619Z,13
2019-02-06T11:32:19.564Z,9.5
2019-02-06T11:34:19.213Z,14.7
2019-02-06T11:36:24.611Z,9.4
2019-02-06T11:38:19.306Z,15.3
2019-02-06T11:40:19.455Z,10.2
2019-02-06T11:42:19.092Z,14.3
2019-02-06T11:44:18.760Z,13.7
2019-02-06T11:46:18.795Z,10.8
2019-02-06T11:48:19.482Z,12.1
2019-02-06T11:50:19.168Z,13.6
2019-02-06T11:52:18.804Z,12.4
2019-02-06T11:54:19.481Z,11.4
2019-02-06T11:56:18.817Z,12.9
2019-02-06T11:58:19.486Z,10
2019-02-06T12:00:19.305Z,12.2
2019-02-06T12:02:19.003Z,26.3
2019-02-06T12:04:18.723Z,11.2
2019-02-06T12:06:18.610Z,10
2019-02-06T12:08:19.652Z,11
2019-02-06T12:10:19.113Z,10.4
2019-02-06T12:12:18.810Z,7.8
2019-02-06T12:14:19.487Z,7.3
2019-02-06T12:16:19.030Z,9.1
2019-02-06T12:18:18.753Z,8.5
2019-02-06T12:20:19.489Z,13.6
2019-02-06T12:22:19.134Z,9.2
2019-02-06T12:24:18.775Z,9.4
2019-02-06T12:26:18.763Z,12.3
2019-02-06T12:28:19.430Z,8.7
2019-02-06T12:30:19.106Z,11.8
2019-02-06T12:32:18.797Z,8.4
2019-02-06T12:34:19.479Z,8.5
2019-02-06T12:36:18.978Z,10.9
2019-02-06T12:38:18.919Z,11.1
2019-02-06T12:40:22.184Z,8.5
2019-02-06T12:42:18.919Z,7.6
2019-02-06T12:44:19.588Z,12.5
2019-02-06T12:46:18.950Z,6.6
2019-02-06T12:48:18.622Z,10.5
2019-02-06T12:50:19.297Z,10.3
2019-02-06T12:52:19.552Z,8.5
2019-02-06T12:54:19.436Z,10.6
2019-02-06T12:56:18.781Z,11.2
2019-02-06T12:58:19.496Z,12.2
2019-02-06T13:00:19.226Z,9.1
2019-02-06T13:02:18.899Z,9.6
2019-02-06T13:04:19.569Z,9.5
2019-02-06T13:06:19.503Z,10.3
2019-02-06T13:08:19.152Z,8.2
2019-02-06T13:10:19.295Z,9.2
2019-02-06T13:12:18.989Z,8.6
2019-02-06T13:14:18.783Z,12.4
2019-02-06T13:16:18.704Z,10.2
2019-02-06T13:18:19.476Z,8.9
2019-02-06T13:20:21.331Z,11.6
2019-02-06T13:22:19.227Z,13.2
2019-02-06T13:24:19.205Z,13.2
2019-02-06T13:26:19.547Z,14.4
2019-02-06T13:28:19.240Z,9.3
2019-02-06T13:30:19.283Z,8.9
2019-02-06T13:32:19.409Z,10.2
2019-02-06T13:34:19.134Z,9.5
2019-02-06T13:36:19.413Z,8.8
2019-02-06T13:38:19.092Z,8.8
2019-02-06T13:40:19.359Z,12.9
2019-02-06T13:42:19.028Z,10.7
2019-02-06T13:44:18.719Z,13.2
2019-02-06T13:46:19.071Z,10.4
2019-02-06T13:48:18.737Z,9.9
2019-02-06T13:50:22.507Z,8.3
2019-02-06T13:52:19.202Z,8.7
2019-02-06T13:54:18.864Z,12.3
2019-02-06T13:56:18.739Z,9.9
2019-02-06T13:58:20.803Z,6.8
2019-02-06T14:00:19.539Z,10.7
2019-02-06T14:02:19.268Z,8.2
2019-02-06T14:04:18.918Z,11.9
2019-02-06T14:06:19.373Z,8.7
2019-02-06T14:08:19.230Z,8.4
2019-02-06T14:10:18.628Z,9.3
2019-02-06T14:12:19.333Z,8.1
2019-02-06T14:14:19.055Z,12.5
2019-02-06T14:16:19.655Z,11.1
2019-02-06T14:18:18.767Z,11.7
2019-02-06T14:20:19.503Z,12.1
2019-02-06T14:22:19.194Z,12.7
2019-02-06T14:24:18.888Z,14.5
2019-02-06T14:26:18.795Z,10.4
2019-02-06T14:28:19.499Z,15.1
2019-02-06T14:30:19.206Z,8.4
2019-02-06T14:32:18.879Z,9.3
2019-02-06T14:34:19.575Z,10.7
2019-02-06T14:36:18.970Z,16.3
2019-02-06T14:38:18.690Z,12.2
2019-02-06T14:40:18.879Z,16.7
2019-02-06T14:42:19.561Z,13.1
2019-02-06T14:44:19.234Z,16.2
2019-02-06T14:46:18.647Z,13.7
2019-02-06T14:48:19.357Z,12.3
2019-02-06T14:50:19.044Z,7.3
2019-02-06T14:52:18.764Z,16.2
2019-02-06T14:54:19.458Z,11
2019-02-06T14:56:18.709Z,15.1
2019-02-06T14:58:19.423Z,14
2019-02-06T15:00:19.129Z,8.9
2019-02-06T15:02:18.844Z,9.6
2019-02-06T15:04:19.558Z,9.1
2019-02-06T15:06:19.467Z,10.9
2019-02-06T15:08:19.184Z,9.2
2019-02-06T15:10:19.366Z,8.5
2019-02-06T15:12:19.046Z,10.7
2019-02-06T15:14:18.749Z,19.3
2019-02-06T15:16:19.108Z,12.5
2019-02-06T15:18:18.880Z,9.7
2019-02-06T15:20:19.591Z,11.9
2019-02-06T15:22:19.310Z,15.8
2019-02-06T15:24:19.109Z,12.6
2019-02-06T15:26:18.622Z,10.9
2019-02-06T15:28:19.310Z,14.8
2019-02-06T15:30:19.003Z,13
2019-02-06T15:32:18.691Z,10.1
2019-02-06T15:34:19.410Z,17
2019-02-06T15:36:19.287Z,10.8
2019-02-06T15:38:18.973Z,10.4
2019-02-06T15:40:19.150Z,13
2019-02-06T15:42:19.175Z,11.9
2019-02-06T15:44:19.145Z,13.8
2019-02-06T15:46:18.687Z,13.6
2019-02-06T15:48:19.355Z,12.1
2019-02-06T15:50:27.272Z,14.1
2019-02-06T15:52:19.000Z,10.2
2019-02-06T15:54:18.701Z,10.6
2019-02-06T15:56:19.650Z,16.2
2019-02-06T15:58:19.788Z,8.9
2019-02-06T16:00:18.796Z,22.8
2019-02-06T16:02:19.474Z,9.3
2019-02-06T16:04:19.146Z,13.3
2019-02-06T16:06:19.865Z,11.6
2019-02-06T16:08:18.927Z,11.1
2019-02-06T16:10:19.100Z,12.4
2019-02-06T16:12:18.785Z,13.2
2019-02-06T16:14:19.502Z,11.6
2019-02-06T16:16:19.352Z,11
2019-02-06T16:18:19.129Z,13.3
2019-02-06T16:20:18.828Z,8.3
2019-02-06T16:22:19.530Z,25.2
2019-02-06T16:24:19.222Z,8.3
2019-02-06T16:26:18.864Z,9.8
2019-02-06T16:28:19.533Z,9.7
2019-02-06T16:30:19.214Z,13.3
2019-02-06T16:32:18.912Z,17.4
2019-02-06T16:34:19.670Z,13.3
2019-02-06T16:36:19.212Z,20.9
2019-02-06T16:38:18.902Z,12.7
2019-02-06T16:40:19.044Z,10.3
2019-02-06T16:42:18.738Z,11.8
2019-02-06T16:44:19.381Z,16.6
2019-02-06T16:46:18.954Z,11.2
2019-02-06T16:48:18.602Z,24.9
2019-02-06T16:50:19.316Z,17.1
2019-02-06T16:52:19.250Z,8.9
2019-02-06T16:54:19.226Z,19.4
2019-02-06T16:56:19.164Z,15
2019-02-06T16:58:18.851Z,13.8
2019-02-06T17:00:19.825Z,12.9
2019-02-06T17:02:19.572Z,12.3
2019-02-06T17:04:19.260Z,9.7
2019-02-06T17:06:19.312Z,14.1
2019-02-06T17:08:19.349Z,10.3
2019-02-06T17:10:18.777Z,11.9
2019-02-06T17:12:19.473Z,12.2
2019-02-06T17:14:19.165Z,15.3
2019-02-06T17:16:19.050Z,17.1
2019-02-06T17:18:19.166Z,15
2019-02-06T17:20:18.859Z,23.5
2019-02-06T17:22:19.557Z,13.8
2019-02-06T17:24:19.470Z,20.5
2019-02-06T17:26:18.821Z,15.8
2019-02-06T17:28:19.452Z,16.7
2019-02-06T17:30:19.158Z,22.9
2019-02-06T17:32:18.952Z,17.2
2019-02-06T17:34:18.978Z,19.1
2019-02-06T17:36:19.315Z,24.7
2019-02-06T17:38:18.962Z,14.7
2019-02-06T17:40:19.393Z,21.4
2019-02-06T17:42:19.422Z,20.4
2019-02-06T17:44:19.090Z,19.9
2019-02-06T17:46:19.589Z,19.7
2019-02-06T17:48:19.342Z,18.6
2019-02-06T17:50:19.205Z,18.1
2019-02-06T17:52:18.859Z,18.4
2019-02-06T17:54:19.532Z,16.6
2019-02-06T17:56:19.404Z,24.7
2019-02-06T17:58:19.086Z,16.7
2019-02-06T18:00:18.795Z,20
2019-02-06T18:02:19.471Z,18.2
2019-02-06T18:04:19.154Z,20
2019-02-06T18:06:19.498Z,24.3
2019-02-06T18:08:19.191Z,19
2019-02-06T18:10:19.356Z,20.6
2019-02-06T18:12:29.215Z,16.5
2019-02-06T18:14:19.557Z,21.8
2019-02-06T18:16:21.739Z,18.4
2019-02-06T18:18:19.486Z,16.5
2019-02-06T18:20:19.156Z,16.3
2019-02-06T18:22:18.845Z,17
2019-02-06T18:24:19.550Z,22.3
2019-02-06T18:26:19.674Z,14.7
2019-02-06T18:28:18.733Z,17.6
2019-02-06T18:30:19.427Z,18.2
2019-02-06T18:32:19.155Z,21.2
2019-02-06T18:34:18.875Z,17.6
2019-02-06T18:36:19.161Z,15
2019-02-06T18:38:18.869Z,15.2
2019-02-06T18:40:19.300Z,15.1
2019-02-06T18:42:19.184Z,16.1
2019-02-06T18:44:18.891Z,15.6
2019-02-06T18:46:19.152Z,16.5
2019-02-06T18:48:18.866Z,15.2
2019-02-06T18:50:19.594Z,11.7
2019-02-06T18:52:20.988Z,12.8
2019-02-06T18:54:18.987Z,15.7
2019-02-06T18:56:19.085Z,19.4
2019-02-06T18:58:18.804Z,15
2019-02-06T19:00:19.591Z,21
2019-02-06T19:02:19.398Z,19.1
2019-02-06T19:04:19.192Z,21.6
2019-02-06T19:06:19.350Z,12.7
2019-02-06T19:08:19.453Z,20.1
2019-02-06T19:10:19.009Z,16.4
2019-02-06T19:12:18.717Z,12.9
2019-02-06T19:14:19.445Z,16.3
2019-02-06T19:16:19.438Z,14.2
2019-02-06T19:18:19.212Z,13.6
2019-02-06T19:20:18.968Z,18.9
2019-02-06T19:22:18.733Z,21.9
2019-02-06T19:24:18.761Z,20.9
2019-02-06T19:26:19.200Z,15.2
2019-02-06T19:28:18.887Z,17.2
2019-02-06T19:30:19.570Z,14.5
2019-02-06T19:32:19.267Z,15.7
2019-02-06T19:34:18.951Z,19.6
2019-02-06T19:36:19.391Z,20.1
2019-02-06T19:38:19.106Z,15.6
2019-02-06T19:40:19.290Z,20.4
2019-02-06T19:42:19.014Z,20.6
2019-02-06T19:44:19.051Z,14
2019-02-06T19:46:18.814Z,18.4
2019-02-06T19:48:22.558Z,17.2
2019-02-06T19:50:19.256Z,20.4
2019-02-06T19:52:19.001Z,13.5
2019-02-06T19:54:18.684Z,21.4
2019-02-06T19:56:19.054Z,18.6
2019-02-06T19:58:19.102Z,16.1
2019-02-06T20:00:19.090Z,19.2
2019-02-06T20:02:18.770Z,12.8
2019-02-06T20:04:19.442Z,25.9
2019-02-06T20:06:18.801Z,13.2
2019-02-06T20:08:19.502Z,15.4
2019-02-06T20:10:18.661Z,19.4
2019-02-06T20:12:19.403Z,14.8
2019-02-06T20:14:19.076Z,14.1
2019-02-06T20:16:19.090Z,15
2019-02-06T20:18:18.887Z,15.3
2019-02-06T20:20:19.912Z,17.9
2019-02-06T20:22:18.937Z,15.1
2019-02-06T20:24:18.626Z,18.4
2019-02-06T20:26:19.050Z,18.2
2019-02-06T20:28:18.707Z,23.1
2019-02-06T20:30:19.410Z,17.4
2019-02-06T20:32:19.371Z,17.4
2019-02-06T20:34:19.296Z,14.8
2019-02-06T20:36:18.941Z,12
2019-02-06T20:38:18.608Z,15
2019-02-06T20:40:18.828Z,12.4
2019-02-06T20:42:19.536Z,16.3
2019-02-06T20:44:19.249Z,17.6
2019-02-06T20:46:18.795Z,20.4
2019-02-06T20:48:19.512Z,9.8
2019-02-06T20:50:19.234Z,15.9
2019-02-06T20:52:18.906Z,14.6
2019-02-06T20:54:19.645Z,18.6
2019-02-06T20:56:19.057Z,13.1
2019-02-06T20:58:19.046Z,14.5
2019-02-06T21:00:18.841Z,11.2
2019-02-06T21:02:19.510Z,15.3
2019-02-06T21:04:19.191Z,19.6
2019-02-06T21:06:19.600Z,12.9
2019-02-06T21:08:19.286Z,14.9
2019-02-06T21:10:19.468Z,10
2019-02-06T21:12:19.187Z,16.1
2019-02-06T21:14:18.862Z,13.1
2019-02-06T21:16:19.567Z,12.8
2019-02-06T21:18:19.338Z,14.6
2019-02-06T21:20:19.030Z,17.1
2019-02-06T21:22:18.742Z,14.2
2019-02-06T21:24:19.450Z,12.6
2019-02-06T21:26:19.372Z,9.9
2019-02-06T21:28:19.257Z,13.1
2019-02-06T21:30:18.945Z,12.7
2019-02-06T21:32:18.638Z,15
2019-02-06T21:34:19.643Z,10.5
2019-02-06T21:36:18.805Z,12
2019-02-06T21:38:19.486Z,13.3
2019-02-06T21:40:20.564Z,10.8
2019-02-06T21:42:19.260Z,12.9
2019-02-06T21:44:18.954Z,14.4
2019-02-06T21:46:19.389Z,16.3
2019-02-06T21:48:19.055Z,12.5
2019-02-06T21:50:18.737Z,16
2019-02-06T21:52:19.418Z,8
2019-02-06T21:54:19.101Z,10.9
2019-02-06T21:56:19.127Z,10.8
2019-02-06T21:58:18.812Z,9.7
2019-02-06T22:00:19.468Z,7.3
2019-02-06T22:02:19.136Z,14.8
2019-02-06T22:04:18.815Z,11
2019-02-06T22:06:18.735Z,14.8
2019-02-06T22:08:19.404Z,17.9
2019-02-06T22:10:19.534Z,17.1
2019-02-06T22:12:19.245Z,12.9
2019-02-06T22:14:18.937Z,13.1
2019-02-06T22:16:19.323Z,16.4
2019-02-06T22:18:19.093Z,11.2
2019-02-06T22:20:19.076Z,14.1
2019-02-06T22:22:19.008Z,9.8
2019-02-06T22:24:18.706Z,10.1
2019-02-06T22:26:19.062Z,12.2
2019-02-06T22:28:19.060Z,18.4
2019-02-06T22:30:19.118Z,18.1
2019-02-06T22:32:18.792Z,14.3
2019-02-06T22:34:19.452Z,13.4
2019-02-06T22:36:19.597Z,14.6
2019-02-06T22:38:19.570Z,12.3
2019-02-06T22:40:18.713Z,14.8
2019-02-06T22:42:19.414Z,11.7
2019-02-06T22:44:19.079Z,12.5
2019-02-06T22:46:19.410Z,17.6
2019-02-06T22:48:19.097Z,20.6
2019-02-06T22:50:18.782Z,13.1
2019-02-06T22:52:19.468Z,9
2019-02-06T22:54:19.179Z,7.8
2019-02-06T22:56:19.048Z,12.3
2019-02-06T22:58:18.706Z,14.5
2019-02-06T23:00:24.599Z,15.1
2019-02-06T23:02:19.270Z,14.6
2019-02-06T23:04:18.955Z,16.3
2019-02-06T23:06:19.590Z,12.3
2019-02-06T23:08:19.245Z,17.2
2019-02-06T23:10:19.407Z,14.4
2019-02-06T23:12:19.080Z,12.8
2019-02-06T23:14:20.048Z,15.2
2019-02-06T23:16:19.527Z,10.5
2019-02-06T23:18:19.287Z,12.2
2019-02-06T23:20:19.115Z,13.9
2019-02-06T23:22:18.969Z,14.6
2019-02-06T23:24:18.748Z,15.5
2019-02-06T23:26:19.130Z,12.5
2019-02-06T23:28:18.796Z,20.8
2019-02-06T23:30:19.727Z,9.4
2019-02-06T23:32:19.422Z,13
2019-02-06T23:34:19.084Z,9.1
2019-02-06T23:36:19.412Z,17.9
2019-02-06T23:38:19.338Z,18.5
2019-02-06T23:40:18.793Z,12.3
2019-02-06T23:42:19.375Z,14.3
2019-02-06T23:44:29.366Z,14.3
2019-02-06T23:46:19.595Z,14.7
2019-02-06T23:48:19.593Z,20.4
2019-02-06T23:50:19.257Z,18.2
2019-02-06T23:52:18.940Z,15.1
2019-02-06T23:54:18.621Z,12.3
2019-02-06T23:56:18.982Z,13.5
2019-02-06T23:58:18.615Z,13.3
